sensor_id;sensor_type;location;lat;lon;timestamp;pressure;altitude;pressure_sealevel;temperature;humidity
29903;BME280;30288;50.514;9.678;2023-05-09T00:00:53;99035.25;;;10.17;100.00
29903;BME280;30288;50.514;9.678;2023-05-09T00:02:59;99033.72;;;10.10;100.00
29903;BME280;30288;50.514;9.678;2023-05-09T00:05:08;99030.34;;;10.11;100.00
29903;BME280;30288;50.514;9.678;2023-05-09T00:07:16;99032.00;;;10.12;100.00
29903;BME280;30288;50.514;9.678;2023-05-09T00:09:21;99033.72;;;10.10;100.00
29903;BME280;30288;50.514;9.678;2023-05-09T00:11:26;99026.97;;;10.12;100.00
29903;BME280;30288;50.514;9.678;2023-05-09T00:13:32;99030.19;;;10.20;100.00
29903;BME280;30288;50.514;9.678;2023-05-09T00:15:38;99019.19;;;10.24;100.00
29903;BME280;30288;50.514;9.678;2023-05-09T00:17:46;99026.81;;;10.21;100.00
29903;BME280;30288;50.514;9.678;2023-05-09T00:19:51;99027.66;;;10.20;100.00
29903;BME280;30288;50.514;9.678;2023-05-09T00:21:57;99029.31;;;10.21;100.00
29903;BME280;30288;50.514;9.678;2023-05-09T00:24:05;99029.13;;;10.30;100.00
29903;BME280;30288;50.514;9.678;2023-05-09T00:26:10;99025.56;;;10.39;100.00
29903;BME280;30288;50.514;9.678;2023-05-09T00:28:17;99021.56;;;10.30;100.00
29903;BME280;30288;50.514;9.678;2023-05-09T00:30:22;99025.66;;;10.34;100.00
29903;BME280;30288;50.514;9.678;2023-05-09T00:32:27;99024.72;;;10.38;100.00
29903;BME280;30288;50.514;9.678;2023-05-09T00:34:33;99018.53;;;10.51;100.00
29903;BME280;30288;50.514;9.678;2023-05-09T00:36:38;99015.06;;;10.57;100.00
29903;BME280;30288;50.514;9.678;2023-05-09T00:38:43;99014.09;;;10.63;100.00
29903;BME280;30288;50.514;9.678;2023-05-09T00:40:51;99013.97;;;10.69;100.00
29903;BME280;30288;50.514;9.678;2023-05-09T00:42:58;99013.97;;;10.69;100.00
29903;BME280;30288;50.514;9.678;2023-05-09T00:45:05;99003.81;;;10.72;100.00
29903;BME280;30288;50.514;9.678;2023-05-09T00:47:10;98997.09;;;10.71;100.00
29903;BME280;30288;50.514;9.678;2023-05-09T00:49:15;98992.00;;;10.74;100.00
29903;BME280;30288;50.514;9.678;2023-05-09T00:51:21;98996.13;;;10.76;100.00
29903;BME280;30288;50.514;9.678;2023-05-09T00:53:27;98995.44;;;10.70;100.00
29903;BME280;30288;50.514;9.678;2023-05-09T00:55:32;98993.72;;;10.72;100.00
29903;BME280;30288;50.514;9.678;2023-05-09T00:57:40;98992.69;;;10.79;100.00
29903;BME280;30288;50.514;9.678;2023-05-09T00:59:46;98986.75;;;10.83;100.00
29903;BME280;30288;50.514;9.678;2023-05-09T01:01:51;98989.31;;;10.80;100.00
29903;BME280;30288;50.514;9.678;2023-05-09T01:03:57;98983.34;;;10.84;100.00
29903;BME280;30288;50.514;9.678;2023-05-09T01:06:09;98984.03;;;10.90;100.00
29903;BME280;30288;50.514;9.678;2023-05-09T01:08:24;98986.50;;;10.92;100.00
29903;BME280;30288;50.514;9.678;2023-05-09T01:10:41;98983.06;;;10.94;100.00
29903;BME280;30288;50.514;9.678;2023-05-09T01:12:59;98970.47;;;10.94;100.00
29903;BME280;30288;50.514;9.678;2023-05-09T01:15:12;98979.47;;;11.03;100.00
29903;BME280;30288;50.514;9.678;2023-05-09T01:17:25;98978.63;;;11.04;100.00
29903;BME280;30288;50.514;9.678;2023-05-09T01:19:56;98974.38;;;11.06;100.00
29903;BME280;30288;50.514;9.678;2023-05-09T01:22:07;98978.84;;;10.96;100.00
29903;BME280;30288;50.514;9.678;2023-05-09T01:24:44;98970.16;;;11.07;100.00
29903;BME280;30288;50.514;9.678;2023-05-09T01:27:34;98969.25;;;11.09;100.00
29903;BME280;30288;50.514;9.678;2023-05-09T01:29:53;98962.56;;;11.08;100.00
29903;BME280;30288;50.514;9.678;2023-05-09T01:32:03;98964.13;;;11.12;100.00
29903;BME280;30288;50.514;9.678;2023-05-09T01:34:14;98971.63;;;11.15;100.00
29903;BME280;30288;50.514;9.678;2023-05-09T01:36:22;98969.22;;;11.11;100.00
29903;BME280;30288;50.514;9.678;2023-05-09T01:38:32;98966.69;;;11.11;100.00
29903;BME280;30288;50.514;9.678;2023-05-09T01:40:39;98977.69;;;11.08;100.00
29903;BME280;30288;50.514;9.678;2023-05-09T01:43:04;98967.47;;;11.13;100.00
29903;BME280;30288;50.514;9.678;2023-05-09T01:45:14;98962.31;;;11.17;100.00
29903;BME280;30288;50.514;9.678;2023-05-09T01:47:20;98959.91;;;11.13;100.00
29903;BME280;30288;50.514;9.678;2023-05-09T01:49:29;98960.84;;;11.10;100.00
29903;BME280;30288;50.514;9.678;2023-05-09T01:51:38;98965.25;;;11.02;100.00
29903;BME280;30288;50.514;9.678;2023-05-09T01:53:47;98955.78;;;11.10;100.00
29903;BME280;30288;50.514;9.678;2023-05-09T01:55:54;98955.84;;;11.07;100.00
29903;BME280;30288;50.514;9.678;2023-05-09T01:58:01;98960.88;;;11.07;100.00
29903;BME280;30288;50.514;9.678;2023-05-09T02:00:09;98960.97;;;11.04;100.00
29903;BME280;30288;50.514;9.678;2023-05-09T02:02:21;98955.84;;;11.07;100.00
29903;BME280;30288;50.514;9.678;2023-05-09T02:04:27;98959.19;;;11.08;100.00
29903;BME280;30288;50.514;9.678;2023-05-09T02:06:34;98961.06;;;11.01;100.00
29903;BME280;30288;50.514;9.678;2023-05-09T02:08:40;98964.53;;;10.97;100.00
29903;BME280;30288;50.514;9.678;2023-05-09T02:10:47;98966.00;;;11.06;100.00
29903;BME280;30288;50.514;9.678;2023-05-09T02:12:53;98963.50;;;11.04;100.00
29903;BME280;30288;50.514;9.678;2023-05-09T02:14:59;98960.16;;;11.04;100.00
29903;BME280;30288;50.514;9.678;2023-05-09T02:17:05;98957.75;;;10.99;100.00
29903;BME280;30288;50.514;9.678;2023-05-09T02:19:13;98963.03;;;10.90;100.00
29903;BME280;30288;50.514;9.678;2023-05-09T02:21:18;98961.53;;;10.83;100.00
29903;BME280;30288;50.514;9.678;2023-05-09T02:23:24;98959.16;;;10.77;100.00
29903;BME280;30288;50.514;9.678;2023-05-09T02:25:29;98957.53;;;10.74;100.00
29903;BME280;30288;50.514;9.678;2023-05-09T02:27:37;98949.25;;;10.71;100.00
29903;BME280;30288;50.514;9.678;2023-05-09T02:29:47;98951.00;;;10.67;100.00
29903;BME280;30288;50.514;9.678;2023-05-09T02:31:53;98950.06;;;10.71;100.00
29903;BME280;30288;50.514;9.678;2023-05-09T02:34:02;98938.41;;;10.69;100.00
29903;BME280;30288;50.514;9.678;2023-05-09T02:36:12;98946.13;;;10.61;100.00
29903;BME280;30288;50.514;9.678;2023-05-09T02:38:18;98952.13;;;10.56;100.00
29903;BME280;30288;50.514;9.678;2023-05-09T02:40:24;98948.34;;;10.39;100.00
29903;BME280;30288;50.514;9.678;2023-05-09T02:42:30;98949.91;;;10.45;100.00
29903;BME280;30288;50.514;9.678;2023-05-09T02:44:35;98955.69;;;10.48;100.00
29903;BME280;30288;50.514;9.678;2023-05-09T02:46:40;98947.09;;;10.56;100.00
29903;BME280;30288;50.514;9.678;2023-05-09T02:48:45;98945.47;;;10.55;100.00
29903;BME280;30288;50.514;9.678;2023-05-09T02:50:50;98942.00;;;10.59;100.00
29903;BME280;30288;50.514;9.678;2023-05-09T02:52:58;98951.38;;;10.52;100.00
29903;BME280;30288;50.514;9.678;2023-05-09T02:55:05;98948.09;;;10.50;100.00
29903;BME280;30288;50.514;9.678;2023-05-09T02:57:13;98953.94;;;10.50;100.00
29903;BME280;30288;50.514;9.678;2023-05-09T02:59:19;98943.06;;;10.50;100.00
29903;BME280;30288;50.514;9.678;2023-05-09T03:01:24;98949.06;;;10.44;100.00
29903;BME280;30288;50.514;9.678;2023-05-09T03:03:31;98944.03;;;10.44;100.00
29903;BME280;30288;50.514;9.678;2023-05-09T03:05:39;98938.06;;;10.48;100.00
29903;BME280;30288;50.514;9.678;2023-05-09T03:07:44;98934.00;;;10.41;100.00
29903;BME280;30288;50.514;9.678;2023-05-09T03:09:53;98930.78;;;10.36;100.00
29903;BME280;30288;50.514;9.678;2023-05-09T03:11:58;98934.41;;;10.26;100.00
29903;BME280;30288;50.514;9.678;2023-05-09T03:14:05;98927.88;;;10.18;100.00
29903;BME280;30288;50.514;9.678;2023-05-09T03:16:17;98926.22;;;10.15;100.00
29903;BME280;30288;50.514;9.678;2023-05-09T03:18:24;98922.25;;;10.05;100.00
29903;BME280;30288;50.514;9.678;2023-05-09T03:20:29;98926.44;;;10.06;100.00
29903;BME280;30288;50.514;9.678;2023-05-09T03:22:35;98924.03;;;10.01;100.00
29903;BME280;30288;50.514;9.678;2023-05-09T03:24:43;98925.72;;;10.01;100.00
29903;BME280;30288;50.514;9.678;2023-05-09T03:26:51;98921.41;;;10.06;100.00
29903;BME280;30288;50.514;9.678;2023-05-09T03:28:57;98921.19;;;10.15;100.00
29903;BME280;30288;50.514;9.678;2023-05-09T03:31:02;98924.53;;;10.17;100.00
29903;BME280;30288;50.514;9.678;2023-05-09T03:33:08;98914.34;;;10.22;100.00
29903;BME280;30288;50.514;9.678;2023-05-09T03:35:14;98918.47;;;10.26;100.00
29903;BME280;30288;50.514;9.678;2023-05-09T03:37:19;98917.47;;;10.31;100.00
29903;BME280;30288;50.514;9.678;2023-05-09T03:39:28;98914.91;;;10.34;100.00
29903;BME280;30288;50.514;9.678;2023-05-09T03:41:33;98912.16;;;10.43;100.00
29903;BME280;30288;50.514;9.678;2023-05-09T03:43:44;98908.69;;;10.47;100.00
29903;BME280;30288;50.514;9.678;2023-05-09T03:45:49;98901.03;;;10.52;100.00
29903;BME280;30288;50.514;9.678;2023-05-09T03:47:54;98913.22;;;10.69;100.00
29903;BME280;30288;50.514;9.678;2023-05-09T03:50:00;98906.28;;;10.77;100.00
29903;BME280;30288;50.514;9.678;2023-05-09T03:52:06;98902.88;;;10.78;100.00
29903;BME280;30288;50.514;9.678;2023-05-09T03:54:11;98899.41;;;10.82;100.00
29903;BME280;30288;50.514;9.678;2023-05-09T03:56:17;98890.13;;;10.84;100.00
29903;BME280;30288;50.514;9.678;2023-05-09T03:58:25;98900.28;;;10.81;100.00
29903;BME280;30288;50.514;9.678;2023-05-09T04:00:34;98884.16;;;10.88;100.00
29903;BME280;30288;50.514;9.678;2023-05-09T04:02:44;98885.03;;;10.85;100.00
29903;BME280;30288;50.514;9.678;2023-05-09T04:04:58;98893.41;;;10.87;100.00
29903;BME280;30288;50.514;9.678;2023-05-09T04:07:04;98887.53;;;10.87;100.00
29903;BME280;30288;50.514;9.678;2023-05-09T04:09:09;98883.09;;;10.95;100.00
29903;BME280;30288;50.514;9.678;2023-05-09T04:11:16;98888.94;;;10.97;100.00
29903;BME280;30288;50.514;9.678;2023-05-09T04:13:23;98885.47;;;11.01;100.00
29903;BME280;30288;50.514;9.678;2023-05-09T04:15:29;98897.28;;;10.99;100.00
29903;BME280;30288;50.514;9.678;2023-05-09T04:17:37;98882.25;;;10.96;100.00
29903;BME280;30288;50.514;9.678;2023-05-09T04:19:42;98892.22;;;10.99;100.00
29903;BME280;30288;50.514;9.678;2023-05-09T04:21:48;98885.63;;;10.95;100.00
29903;BME280;30288;50.514;9.678;2023-05-09T04:23:54;98885.63;;;10.95;100.00
29903;BME280;30288;50.514;9.678;2023-05-09T04:26:07;98889.00;;;10.94;100.00
29903;BME280;30288;50.514;9.678;2023-05-09T04:28:13;98885.63;;;10.95;100.00
29903;BME280;30288;50.514;9.678;2023-05-09T04:30:19;98885.72;;;10.92;100.00
29903;BME280;30288;50.514;9.678;2023-05-09T04:32:24;98872.34;;;10.88;100.00
29903;BME280;30288;50.514;9.678;2023-05-09T04:34:33;98879.03;;;10.91;100.00
29903;BME280;30288;50.514;9.678;2023-05-09T04:36:46;98880.94;;;10.83;100.00
29903;BME280;30288;50.514;9.678;2023-05-09T04:38:53;98874.13;;;10.85;100.00
29903;BME280;30288;50.514;9.678;2023-05-09T04:41:00;98865.81;;;10.83;100.00
29903;BME280;30288;50.514;9.678;2023-05-09T04:43:05;98869.81;;;10.90;100.00
29903;BME280;30288;50.514;9.678;2023-05-09T04:45:11;98867.19;;;10.93;100.00
29903;BME280;30288;50.514;9.678;2023-05-09T04:47:17;98867.88;;;10.98;100.00
29903;BME280;30288;50.514;9.678;2023-05-09T04:49:22;98868.69;;;11.00;100.00
29903;BME280;30288;50.514;9.678;2023-05-09T04:51:30;98873.72;;;11.00;100.00
29903;BME280;30288;50.514;9.678;2023-05-09T04:53:35;98871.06;;;11.05;100.00
29903;BME280;30288;50.514;9.678;2023-05-09T04:55:42;98870.25;;;11.04;100.00
29903;BME280;30288;50.514;9.678;2023-05-09T04:57:48;98875.19;;;11.07;100.00
29903;BME280;30288;50.514;9.678;2023-05-09T04:59:54;98873.31;;;11.15;100.00
29903;BME280;30288;50.514;9.678;2023-05-09T05:01:59;98867.84;;;11.30;100.00
29903;BME280;30288;50.514;9.678;2023-05-09T05:04:05;98865.81;;;11.41;100.00
29903;BME280;30288;50.514;9.678;2023-05-09T05:06:11;98871.91;;;11.64;100.00
29903;BME280;30288;50.514;9.678;2023-05-09T05:08:19;98878.16;;;11.80;100.00
29903;BME280;30288;50.514;9.678;2023-05-09T05:10:25;98873.47;;;11.96;100.00
29903;BME280;30288;50.514;9.678;2023-05-09T05:12:40;98872.06;;;12.13;100.00
29903;BME280;30288;50.514;9.678;2023-05-09T05:14:47;98869.91;;;12.27;100.00
29903;BME280;30288;50.514;9.678;2023-05-09T05:16:55;98871.06;;;12.44;100.00
29903;BME280;30288;50.514;9.678;2023-05-09T05:19:00;98873.94;;;12.58;100.00
29903;BME280;30288;50.514;9.678;2023-05-09T05:21:10;98871.28;;;12.62;100.00
29903;BME280;30288;50.514;9.678;2023-05-09T05:23:21;98864.91;;;12.76;100.00
29903;BME280;30288;50.514;9.678;2023-05-09T05:25:28;98859.69;;;12.80;100.00
29903;BME280;30288;50.514;9.678;2023-05-09T05:27:35;98867.94;;;12.85;100.00
29903;BME280;30288;50.514;9.678;2023-05-09T05:29:41;98857.84;;;12.85;100.00
29903;BME280;30288;50.514;9.678;2023-05-09T05:31:46;98856.97;;;12.86;100.00
29903;BME280;30288;50.514;9.678;2023-05-09T05:33:51;98859.59;;;12.83;100.00
29903;BME280;30288;50.514;9.678;2023-05-09T05:35:57;98861.34;;;12.81;100.00
29903;BME280;30288;50.514;9.678;2023-05-09T05:38:02;98859.69;;;12.80;100.00
29903;BME280;30288;50.514;9.678;2023-05-09T05:40:11;98861.69;;;12.72;100.00
29903;BME280;30288;50.514;9.678;2023-05-09T05:42:19;98856.81;;;12.66;100.00
29903;BME280;30288;50.514;9.678;2023-05-09T05:44:25;98858.56;;;12.64;100.00
29903;BME280;30288;50.514;9.678;2023-05-09T05:46:30;98865.38;;;12.62;100.00
29903;BME280;30288;50.514;9.678;2023-05-09T05:48:36;98864.69;;;12.58;100.00
29903;BME280;30288;50.514;9.678;2023-05-09T05:50:42;98864.03;;;12.52;100.00
29903;BME280;30288;50.514;9.678;2023-05-09T05:52:49;98854.81;;;12.51;100.00
29903;BME280;30288;50.514;9.678;2023-05-09T05:54:55;98858.94;;;12.53;100.00
29903;BME280;30288;50.514;9.678;2023-05-09T05:57:03;98853.13;;;12.51;100.00
29903;BME280;30288;50.514;9.678;2023-05-09T05:59:10;98844.56;;;12.55;100.00
29903;BME280;30288;50.514;9.678;2023-05-09T06:01:15;98840.88;;;12.64;100.00
29903;BME280;30288;50.514;9.678;2023-05-09T06:03:21;98850.25;;;12.85;100.00
29903;BME280;30288;50.514;9.678;2023-05-09T06:05:36;98843.38;;;13.13;100.00
29903;BME280;30288;50.514;9.678;2023-05-09T06:07:41;98845.53;;;13.46;100.00
29903;BME280;30288;50.514;9.678;2023-05-09T06:09:46;98844.50;;;13.73;100.00
29903;BME280;30288;50.514;9.678;2023-05-09T06:11:52;98839.38;;;13.95;100.00
29903;BME280;30288;50.514;9.678;2023-05-09T06:14:00;98842.88;;;14.13;100.00
29903;BME280;30288;50.514;9.678;2023-05-09T06:16:06;98842.69;;;14.39;100.00
29903;BME280;30288;50.514;9.678;2023-05-09T06:18:23;98835.81;;;14.61;100.00
29903;BME280;30288;50.514;9.678;2023-05-09T06:20:29;98835.91;;;14.78;100.00
29903;BME280;30288;50.514;9.678;2023-05-09T06:22:34;98829.44;;;14.92;100.00
29903;BME280;30288;50.514;9.678;2023-05-09T06:24:39;98828.63;;;15.10;100.00
29903;BME280;30288;50.514;9.678;2023-05-09T06:26:44;98826.19;;;15.25;100.00
29903;BME280;30288;50.514;9.678;2023-05-09T06:28:49;98830.78;;;15.36;100.00
29903;BME280;30288;50.514;9.678;2023-05-09T06:30:57;98824.91;;;15.54;100.00
29903;BME280;30288;50.514;9.678;2023-05-09T06:33:03;98828.22;;;15.73;100.00
29903;BME280;30288;50.514;9.678;2023-05-09T06:35:08;98818.66;;;15.79;100.00
29903;BME280;30288;50.514;9.678;2023-05-09T06:37:14;98823.91;;;15.75;100.00
29903;BME280;30288;50.514;9.678;2023-05-09T06:39:19;98824.69;;;15.95;100.00
29903;BME280;30288;50.514;9.678;2023-05-09T06:41:24;98828.25;;;16.08;100.00
29903;BME280;30288;50.514;9.678;2023-05-09T06:43:29;98823.31;;;16.22;100.00
29903;BME280;30288;50.514;9.678;2023-05-09T06:45:34;98818.97;;;16.41;100.00
29903;BME280;30288;50.514;9.678;2023-05-09T06:47:42;98817.94;;;16.63;100.00
29903;BME280;30288;50.514;9.678;2023-05-09T06:49:47;98814.00;;;16.73;100.00
29903;BME280;30288;50.514;9.678;2023-05-09T06:51:52;98798.19;;;16.68;100.00
29903;BME280;30288;50.514;9.678;2023-05-09T06:53:57;98803.38;;;16.82;100.00
29903;BME280;30288;50.514;9.678;2023-05-09T06:56:03;98800.94;;;16.96;100.00
29903;BME280;30288;50.514;9.678;2023-05-09T06:58:08;98796.97;;;17.06;100.00
29903;BME280;30288;50.514;9.678;2023-05-09T07:00:15;98800.59;;;16.86;100.00
29903;BME280;30288;50.514;9.678;2023-05-09T07:02:20;98798.47;;;16.61;100.00
29903;BME280;30288;50.514;9.678;2023-05-09T07:04:28;98794.63;;;16.37;100.00
29903;BME280;30288;50.514;9.678;2023-05-09T07:06:33;98797.47;;;16.14;100.00
29903;BME280;30288;50.514;9.678;2023-05-09T07:08:39;98795.03;;;15.95;100.00
29903;BME280;30288;50.514;9.678;2023-05-09T07:10:44;98788.50;;;16.07;100.00
29903;BME280;30288;50.514;9.678;2023-05-09T07:12:49;98794.63;;;16.03;100.00
29903;BME280;30288;50.514;9.678;2023-05-09T07:14:54;98786.06;;;16.05;100.00
29903;BME280;30288;50.514;9.678;2023-05-09T07:17:00;98784.53;;;16.01;100.00
29903;BME280;30288;50.514;9.678;2023-05-09T07:19:24;98784.53;;;15.84;100.00
29903;BME280;30288;50.514;9.678;2023-05-09T07:21:32;98781.63;;;15.74;100.00
29903;BME280;30288;50.514;9.678;2023-05-09T07:23:37;98778.66;;;15.66;100.00
29903;BME280;30288;50.514;9.678;2023-05-09T07:25:42;98781.03;;;15.69;100.00
29903;BME280;30288;50.514;9.678;2023-05-09T07:27:47;98775.97;;;15.87;100.00
29903;BME280;30288;50.514;9.678;2023-05-09T07:29:53;98773.72;;;15.98;100.00
29903;BME280;30288;50.514;9.678;2023-05-09T07:31:58;98766.47;;;16.40;100.00
29903;BME280;30288;50.514;9.678;2023-05-09T07:34:03;98761.75;;;16.83;100.00
29903;BME280;30288;50.514;9.678;2023-05-09T07:36:08;98764.25;;;17.00;100.00
29903;BME280;30288;50.514;9.678;2023-05-09T07:38:17;98754.47;;;17.24;100.00
29903;BME280;30288;50.514;9.678;2023-05-09T07:40:22;98756.69;;;17.14;100.00
29903;BME280;30288;50.514;9.678;2023-05-09T07:42:28;98751.97;;;17.22;100.00
29903;BME280;30288;50.514;9.678;2023-05-09T07:44:34;98744.91;;;17.27;100.00
29903;BME280;30288;50.514;9.678;2023-05-09T07:46:39;98751.16;;;17.37;100.00
29903;BME280;30288;50.514;9.678;2023-05-09T07:48:44;98750.13;;;17.56;100.00
29903;BME280;30288;50.514;9.678;2023-05-09T07:50:49;98743.38;;;18.00;100.00
29903;BME280;30288;50.514;9.678;2023-05-09T07:52:54;98744.84;;;18.47;100.00
29903;BME280;30288;50.514;9.678;2023-05-09T07:55:04;98752.13;;;18.95;100.00
29903;BME280;30288;50.514;9.678;2023-05-09T07:57:10;98747.41;;;19.43;100.00
29903;BME280;30288;50.514;9.678;2023-05-09T07:59:15;98748.63;;;19.64;100.00
29903;BME280;30288;50.514;9.678;2023-05-09T08:01:20;98747.03;;;19.88;100.00
29903;BME280;30288;50.514;9.678;2023-05-09T08:03:26;98744.25;;;19.79;100.00
29903;BME280;30288;50.514;9.678;2023-05-09T08:05:31;98748.69;;;19.62;100.00
29903;BME280;30288;50.514;9.678;2023-05-09T08:07:36;98744.63;;;19.60;100.00
29903;BME280;30288;50.514;9.678;2023-05-09T08:09:41;98744.41;;;19.63;100.00
29903;BME280;30288;50.514;9.678;2023-05-09T08:11:49;98742.97;;;19.59;100.00
29903;BME280;30288;50.514;9.678;2023-05-09T08:13:54;98734.78;;;19.54;100.00
29903;BME280;30288;50.514;9.678;2023-05-09T08:16:00;98733.81;;;19.69;100.00
29903;BME280;30288;50.514;9.678;2023-05-09T08:18:05;98726.81;;;19.46;100.00
29903;BME280;30288;50.514;9.678;2023-05-09T08:20:12;98733.78;;;19.56;100.00
29903;BME280;30288;50.514;9.678;2023-05-09T08:22:17;98723.94;;;19.90;100.00
29903;BME280;30288;50.514;9.678;2023-05-09T08:24:23;98719.09;;;20.48;100.00
29903;BME280;30288;50.514;9.678;2023-05-09T08:26:28;98717.88;;;20.54;100.00
29903;BME280;30288;50.514;9.678;2023-05-09T08:28:35;98713.88;;;20.50;100.00
29903;BME280;30288;50.514;9.678;2023-05-09T08:30:41;98720.13;;;20.21;100.00
29903;BME280;30288;50.514;9.678;2023-05-09T08:32:46;98719.84;;;20.13;100.00
29903;BME280;30288;50.514;9.678;2023-05-09T08:34:51;98718.91;;;20.14;100.00
29903;BME280;30288;50.514;9.678;2023-05-09T08:36:56;98716.94;;;20.30;100.00
29903;BME280;30288;50.514;9.678;2023-05-09T08:39:01;98717.16;;;20.27;100.00
29903;BME280;30288;50.514;9.678;2023-05-09T08:41:07;98704.38;;;19.76;100.00
29903;BME280;30288;50.514;9.678;2023-05-09T08:43:13;98703.84;;;19.32;100.00
29903;BME280;30288;50.514;9.678;2023-05-09T08:45:25;98703.53;;;19.23;100.00
29903;BME280;30288;50.514;9.678;2023-05-09T08:47:35;98701.66;;;19.13;100.00
29903;BME280;30288;50.514;9.678;2023-05-09T08:49:41;98715.13;;;19.42;100.00
29903;BME280;30288;50.514;9.678;2023-05-09T08:51:47;98698.88;;;19.43;100.00
29903;BME280;30288;50.514;9.678;2023-05-09T08:53:52;98698.03;;;19.82;100.00
29903;BME280;30288;50.514;9.678;2023-05-09T08:55:58;98695.00;;;19.77;100.00
29903;BME280;30288;50.514;9.678;2023-05-09T08:58:04;98693.94;;;19.79;100.00
29903;BME280;30288;50.514;9.678;2023-05-09T09:00:12;98691.72;;;20.38;100.00
29903;BME280;30288;50.514;9.678;2023-05-09T09:02:24;98696.06;;;20.61;100.00
29903;BME280;30288;50.514;9.678;2023-05-09T09:04:29;98693.84;;;20.44;100.00
29903;BME280;30288;50.514;9.678;2023-05-09T09:06:35;98684.44;;;20.32;100.00
29903;BME280;30288;50.514;9.678;2023-05-09T09:08:41;98681.47;;;20.13;100.00
29903;BME280;30288;50.514;9.678;2023-05-09T09:10:47;98685.34;;;20.05;100.00
29903;BME280;30288;50.514;9.678;2023-05-09T09:12:53;98678.00;;;19.88;100.00
29903;BME280;30288;50.514;9.678;2023-05-09T09:15:04;98674.31;;;20.18;100.00
29903;BME280;30288;50.514;9.678;2023-05-09T09:17:11;98676.72;;;20.57;100.00
29903;BME280;30288;50.514;9.678;2023-05-09T09:19:26;98673.56;;;20.77;100.00
29903;BME280;30288;50.514;9.678;2023-05-09T09:21:32;98660.88;;;21.58;100.00
29903;BME280;30288;50.514;9.678;2023-05-09T09:23:39;98661.38;;;21.63;100.00
29903;BME280;30288;50.514;9.678;2023-05-09T09:25:46;98655.75;;;22.04;100.00
29903;BME280;30288;50.514;9.678;2023-05-09T09:27:51;98656.91;;;22.22;100.00
29903;BME280;30288;50.514;9.678;2023-05-09T09:30:06;98650.50;;;22.28;100.00
29903;BME280;30288;50.514;9.678;2023-05-09T09:32:11;98644.44;;;22.18;100.00
29903;BME280;30288;50.514;9.678;2023-05-09T09:34:22;98643.50;;;22.19;100.00
29903;BME280;30288;50.514;9.678;2023-05-09T09:36:29;98632.31;;;21.98;100.00
29903;BME280;30288;50.514;9.678;2023-05-09T09:38:40;98638.34;;;21.97;100.00
29903;BME280;30288;50.514;9.678;2023-05-09T09:40:52;98622.47;;;21.92;100.00
29903;BME280;30288;50.514;9.678;2023-05-09T09:42:57;98623.09;;;22.17;100.00
29903;BME280;30288;50.514;9.678;2023-05-09T09:45:05;98620.38;;;22.41;100.00
29903;BME280;30288;50.514;9.678;2023-05-09T09:47:12;98611.75;;;22.20;100.00
29903;BME280;30288;50.514;9.678;2023-05-09T09:49:22;98610.31;;;22.49;100.00
29903;BME280;30288;50.514;9.678;2023-05-09T09:51:28;98609.47;;;22.60;100.00
29903;BME280;30288;50.514;9.678;2023-05-09T09:53:38;98604.53;;;22.68;100.00
29903;BME280;30288;50.514;9.678;2023-05-09T09:55:49;98598.13;;;22.62;100.00
29903;BME280;30288;50.514;9.678;2023-05-09T09:57:55;98597.84;;;22.88;100.00
29903;BME280;30288;50.514;9.678;2023-05-09T10:00:00;98589.66;;;22.94;100.00
29903;BME280;30288;50.514;9.678;2023-05-09T10:02:06;98589.78;;;22.92;100.00
29903;BME280;30288;50.514;9.678;2023-05-09T10:04:15;98578.53;;;22.73;100.00
29903;BME280;30288;50.514;9.678;2023-05-09T10:06:23;98578.31;;;22.76;100.00
29903;BME280;30288;50.514;9.678;2023-05-09T10:08:28;98580.63;;;22.67;100.00
29903;BME280;30288;50.514;9.678;2023-05-09T10:10:35;98566.19;;;22.55;100.00
29903;BME280;30288;50.514;9.678;2023-05-09T10:12:42;98578.84;;;22.47;100.00
29903;BME280;30288;50.514;9.678;2023-05-09T10:14:48;98572.91;;;22.79;100.00
29903;BME280;30288;50.514;9.678;2023-05-09T10:16:55;98564.78;;;23.15;100.00
29903;BME280;30288;50.514;9.678;2023-05-09T10:19:01;98559.84;;;23.23;100.00
29903;BME280;30288;50.514;9.678;2023-05-09T10:21:07;98569.22;;;23.34;100.00
29903;BME280;30288;50.514;9.678;2023-05-09T10:23:19;98555.81;;;23.51;93.90
29903;BME280;30288;50.514;9.678;2023-05-09T10:25:37;98552.75;;;23.97;98.17
29903;BME280;30288;50.514;9.678;2023-05-09T10:27:45;98550.06;;;23.98;100.00
29903;BME280;30288;50.514;9.678;2023-05-09T10:29:56;98541.22;;;24.41;100.00
29903;BME280;30288;50.514;9.678;2023-05-09T10:32:14;98540.59;;;24.09;99.34
29903;BME280;30288;50.514;9.678;2023-05-09T10:34:22;98532.47;;;24.13;92.93
29903;BME280;30288;50.514;9.678;2023-05-09T10:36:29;98536.31;;;24.28;97.30
29903;BME280;30288;50.514;9.678;2023-05-09T10:38:37;98525.91;;;23.80;88.04
29903;BME280;30288;50.514;9.678;2023-05-09T10:40:45;98518.47;;;23.26;84.04
29903;BME280;30288;50.514;9.678;2023-05-09T10:42:51;98518.75;;;23.53;95.89
29903;BME280;30288;50.514;9.678;2023-05-09T10:44:56;98512.94;;;23.51;94.68
29903;BME280;30288;50.514;9.678;2023-05-09T10:47:02;98510.31;;;23.82;90.80
29903;BME280;30288;50.514;9.678;2023-05-09T10:49:08;98506.91;;;23.72;91.57
29903;BME280;30288;50.514;9.678;2023-05-09T10:51:14;98503.41;;;24.22;86.95
29903;BME280;30288;50.514;9.678;2023-05-09T10:53:19;98500.56;;;24.45;86.91
29903;BME280;30288;50.514;9.678;2023-05-09T10:55:35;98491.28;;;24.04;84.40
29903;BME280;30288;50.514;9.678;2023-05-09T10:57:52;98485.28;;;23.84;78.04
29903;BME280;30288;50.514;9.678;2023-05-09T10:59:58;98485.53;;;23.81;83.07
29903;BME280;30288;50.514;9.678;2023-05-09T11:02:06;98476.31;;;24.37;84.19
29903;BME280;30288;50.514;9.678;2023-05-09T11:04:16;98476.81;;;24.12;81.31
29903;BME280;30288;50.514;9.678;2023-05-09T11:06:47;98470.56;;;24.05;78.17